Time;durP1;ratioP1;P1;durP2;ratioP2;P2;SDS_P1;SDS_P2;PMS_P1;PMS_P2;Temp;Humidity;BMP_temperature;BMP_pressure;BME280_temperature;BME280_humidity;BME280_pressure;Samples;Min_cycle;Max_cycle;Signal;HPM_P1;HPM_P2
2022/12/25 00:00:52;;;;;;;177.30;29.50;;;;;;;;;;5017512;28;20040;-73
2022/12/25 00:03:18;;;;;;;206.48;31.55;;;;;;;;;;5050961;28;20521;-72
2022/12/25 00:05:44;;;;;;;228.30;30.77;;;;;;;;;;5050720;28;20051;-72
2022/12/25 00:08:11;;;;;;;227.73;31.08;;;;;;;;;;5059482;28;20055;-72
2022/12/25 00:10:37;;;;;;;236.40;30.65;;;;;;;;;;5050194;28;20560;-72
2022/12/25 00:13:03;;;;;;;185.35;30.25;;;;;;;;;;5050953;28;20397;-72
2022/12/25 00:15:29;;;;;;;199.07;28.88;;;;;;;;;;5050142;28;20045;-72
2022/12/25 00:17:55;;;;;;;195.65;31.15;;;;;;;;;;5051743;28;20069;-72
2022/12/25 00:20:21;;;;;;;230.00;29.75;;;;;;;;;;5034099;28;20045;-72
2022/12/25 00:22:47;;;;;;;179.38;27.30;;;;;;;;;;5050333;28;20119;-73
2022/12/25 00:25:13;;;;;;;256.52;30.73;;;;;;;;;;5051846;28;20111;-72
2022/12/25 00:27:40;;;;;;;186.75;28.08;;;;;;;;;;5050115;28;20577;-72
2022/12/25 00:30:07;;;;;;;214.80;29.90;;;;;;;;;;5033853;28;20049;-72
2022/12/25 00:32:36;;;;;;;201.55;29.95;;;;;;;;;;5052171;28;20110;-72
2022/12/25 00:35:03;;;;;;;167.57;29.50;;;;;;;;;;5048156;28;20088;-72
2022/12/25 00:37:29;;;;;;;129.80;26.42;;;;;;;;;;5053753;28;20049;-72
2022/12/25 00:39:56;;;;;;;141.32;27.10;;;;;;;;;;5054199;28;20041;-72
2022/12/25 00:42:22;;;;;;;131.63;27.25;;;;;;;;;;5037792;28;20083;-73
2022/12/25 00:44:49;;;;;;;128.70;26.45;;;;;;;;;;5053791;28;20521;-72
2022/12/25 00:47:16;;;;;;;118.47;25.60;;;;;;;;;;5054204;28;20167;-72
2022/12/25 00:49:42;;;;;;;180.27;30.90;;;;;;;;;;5053732;28;20077;-72
2022/12/25 00:52:08;;;;;;;136.65;27.92;;;;;;;;;;5037440;28;20107;-72
2022/12/25 00:54:34;;;;;;;144.40;28.70;;;;;;;;;;5036989;28;20085;-72
2022/12/25 00:57:00;;;;;;;159.02;29.60;;;;;;;;;;5054226;28;20512;-72
2022/12/25 00:59:30;;;;;;;166.25;29.40;;;;;;;;;;5053406;28;20040;-72
2022/12/25 01:02:21;;;;;;;199.65;30.35;;;;;;;;;;5055151;28;20041;-72
2022/12/25 01:04:42;;;;;;;197.40;30.20;;;;;;;;;;5039733;28;20049;-72
2022/12/25 01:07:08;;;;;;;199.55;32.08;;;;;;;;;;5042753;28;20093;-72
2022/12/25 01:12:18;;;;;;;171.30;30.65;;;;;;;;;;5053789;28;20053;-73
2022/12/25 01:14:44;;;;;;;172.43;28.80;;;;;;;;;;5054826;28;20132;-73
2022/12/25 01:17:10;;;;;;;145.18;29.15;;;;;;;;;;5053631;28;20041;-73
2022/12/25 01:19:37;;;;;;;128.15;28.05;;;;;;;;;;5036780;28;20051;-73
2022/12/25 01:22:03;;;;;;;135.90;27.67;;;;;;;;;;5053451;28;20128;-73
2022/12/25 01:24:29;;;;;;;139.82;28.85;;;;;;;;;;5053434;28;20059;-73
2022/12/25 01:26:55;;;;;;;121.47;25.33;;;;;;;;;;5053251;28;20048;-73
2022/12/25 01:29:21;;;;;;;127.40;27.02;;;;;;;;;;5053176;28;20099;-73
2022/12/25 01:31:47;;;;;;;117.90;26.40;;;;;;;;;;5053059;28;20059;-73
2022/12/25 01:34:13;;;;;;;119.18;27.80;;;;;;;;;;5048180;28;20045;-73
2022/12/25 01:36:39;;;;;;;146.20;29.95;;;;;;;;;;5036309;28;20072;-73
2022/12/25 01:39:05;;;;;;;126.82;28.08;;;;;;;;;;5052858;28;20111;-73
2022/12/25 01:41:31;;;;;;;154.68;30.95;;;;;;;;;;5052961;28;20099;-73
2022/12/25 01:44:04;;;;;;;124.78;29.65;;;;;;;;;;5052387;28;20044;-73
2022/12/25 01:46:30;;;;;;;134.77;29.27;;;;;;;;;;5053070;28;20044;-73
2022/12/25 01:49:07;;;;;;;117.80;28.50;;;;;;;;;;5036410;28;20406;-73
2022/12/25 01:51:54;;;;;;;116.40;27.80;;;;;;;;;;5052558;28;20049;-73
2022/12/25 01:54:22;;;;;;;112.32;27.00;;;;;;;;;;5053973;28;20041;-73
2022/12/25 01:56:49;;;;;;;137.23;31.90;;;;;;;;;;5052894;28;20116;-73
2022/12/25 01:59:17;;;;;;;103.03;28.30;;;;;;;;;;5052936;28;20076;-73
2022/12/25 02:01:43;;;;;;;99.22;26.30;;;;;;;;;;5052495;28;20040;-73
2022/12/25 02:04:14;;;;;;;107.55;27.52;;;;;;;;;;5052850;28;20045;-73
2022/12/25 02:06:40;;;;;;;131.90;31.60;;;;;;;;;;5052125;28;20143;-73
2022/12/25 02:09:07;;;;;;;119.38;30.40;;;;;;;;;;5052518;28;20040;-73
2022/12/25 02:14:17;;;;;;;105.43;31.13;;;;;;;;;;5052603;28;20049;-73
2022/12/25 02:16:46;;;;;;;116.00;28.95;;;;;;;;;;5051806;28;20036;-73
2022/12/25 02:19:18;;;;;;;123.00;30.98;;;;;;;;;;5052567;28;20175;-73
2022/12/25 02:22:11;;;;;;;96.68;27.40;;;;;;;;;;5052229;28;20052;-73
2022/12/25 02:24:37;;;;;;;116.45;29.73;;;;;;;;;;5052196;28;20593;-73
2022/12/25 02:27:07;;;;;;;107.15;29.95;;;;;;;;;;5052375;28;20075;-73
2022/12/25 02:29:52;;;;;;;121.03;31.50;;;;;;;;;;5052095;28;20068;-73
2022/12/25 02:32:18;;;;;;;107.50;31.83;;;;;;;;;;5052451;28;20486;-73
2022/12/25 02:34:48;;;;;;;104.03;30.35;;;;;;;;;;5032924;28;20036;-73
2022/12/25 02:37:18;;;;;;;129.52;31.70;;;;;;;;;;5035681;28;20033;-73
2022/12/25 02:39:57;;;;;;;96.55;28.83;;;;;;;;;;5051850;28;20150;-74
2022/12/25 03:07:45;;;;;;;101.22;28.65;;;;;;;;;;5050827;28;20052;-74
2022/12/25 03:13:14;;;;;;;114.45;29.50;;;;;;;;;;5084770;28;20132;-74
2022/12/25 03:18:27;;;;;;;107.30;28.42;;;;;;;;;;5085019;28;20075;-73
2022/12/25 03:31:10;;;;;;;111.22;27.80;;;;;;;;;;5051282;28;20449;-73
2022/12/25 03:32:00;;;;;;;117.38;28.27;;;;;;;;;;5050488;28;20053;-74
2022/12/25 04:37:48;;;;;;;97.13;25.73;;;;;;;;;;5054493;28;20064;-73
2022/12/25 04:40:14;;;;;;;93.10;27.90;;;;;;;;;;5053997;28;20049;-73
2022/12/25 04:42:40;;;;;;;104.07;27.27;;;;;;;;;;5037913;28;20044;-73
2022/12/25 04:45:06;;;;;;;93.50;26.23;;;;;;;;;;5037693;28;20489;-74
2022/12/25 04:47:33;;;;;;;93.97;27.55;;;;;;;;;;5037656;28;20045;-73
2022/12/25 04:49:59;;;;;;;98.85;27.92;;;;;;;;;;5037124;28;20041;-73
2022/12/25 04:52:25;;;;;;;97.18;27.23;;;;;;;;;;5037494;28;20048;-73
2022/12/25 04:54:51;;;;;;;108.28;28.70;;;;;;;;;;5054109;28;20037;-73
2022/12/25 04:57:17;;;;;;;104.28;29.52;;;;;;;;;;5053458;28;20033;-73
2022/12/25 04:59:43;;;;;;;100.43;27.02;;;;;;;;;;5054160;28;20041;-73
2022/12/25 05:02:09;;;;;;;103.05;29.00;;;;;;;;;;5054630;28;20044;-73
2022/12/25 05:04:35;;;;;;;104.28;27.15;;;;;;;;;;5037668;28;20039;-73
2022/12/25 05:07:01;;;;;;;98.55;29.48;;;;;;;;;;5054530;28;20037;-73
2022/12/25 05:09:27;;;;;;;105.97;28.67;;;;;;;;;;5055083;28;20033;-73
2022/12/25 05:11:53;;;;;;;112.68;28.85;;;;;;;;;;5053522;28;20045;-73
2022/12/25 05:14:19;;;;;;;109.97;28.58;;;;;;;;;;5054880;28;20037;-73
2022/12/25 05:16:45;;;;;;;91.90;26.55;;;;;;;;;;5053827;28;20029;-74
2022/12/25 05:19:11;;;;;;;95.25;26.02;;;;;;;;;;5052524;28;20127;-73
2022/12/25 05:21:37;;;;;;;97.82;27.73;;;;;;;;;;5053512;28;20335;-73
2022/12/25 05:24:03;;;;;;;107.10;28.02;;;;;;;;;;5054198;28;20041;-73
2022/12/25 05:26:30;;;;;;;100.05;27.83;;;;;;;;;;5037033;28;20041;-73
2022/12/25 05:28:56;;;;;;;104.65;27.90;;;;;;;;;;5052897;28;20057;-74
2022/12/25 05:31:22;;;;;;;113.15;27.00;;;;;;;;;;5036324;28;20041;-73
2022/12/25 05:33:52;;;;;;;102.28;27.30;;;;;;;;;;5047805;28;20406;-74
2022/12/25 05:36:18;;;;;;;118.78;28.95;;;;;;;;;;5052961;28;20037;-74
2022/12/25 05:38:44;;;;;;;95.20;25.45;;;;;;;;;;5053404;28;20560;-73
2022/12/25 05:41:10;;;;;;;105.15;26.65;;;;;;;;;;5036510;28;20381;-73
2022/12/25 05:43:36;;;;;;;96.07;25.10;;;;;;;;;;5052935;28;20413;-73
2022/12/25 05:46:06;;;;;;;107.82;25.65;;;;;;;;;;5053876;28;20067;-73
2022/12/25 05:48:36;;;;;;;92.45;23.73;;;;;;;;;;5053012;28;20044;-73
2022/12/25 05:51:06;;;;;;;114.18;26.38;;;;;;;;;;5052480;28;20045;-73
2022/12/25 05:53:32;;;;;;;112.45;26.48;;;;;;;;;;5053295;28;20132;-73
2022/12/25 05:56:00;;;;;;;93.88;24.13;;;;;;;;;;5054229;28;20044;-72
2022/12/25 05:58:27;;;;;;;92.00;23.55;;;;;;;;;;5036110;28;20043;-73
2022/12/25 06:00:53;;;;;;;104.40;25.83;;;;;;;;;;5052917;28;20112;-73
2022/12/25 06:03:19;;;;;;;108.03;26.00;;;;;;;;;;5035701;28;20374;-73
2022/12/25 06:05:45;;;;;;;108.43;26.65;;;;;;;;;;5052889;28;20053;-73
2022/12/25 06:08:11;;;;;;;106.22;26.33;;;;;;;;;;5051971;28;20041;-73
2022/12/25 06:10:37;;;;;;;100.35;26.27;;;;;;;;;;5052560;28;20126;-73
2022/12/25 06:13:03;;;;;;;94.28;25.50;;;;;;;;;;5052772;28;20608;-73
2022/12/25 06:15:30;;;;;;;109.47;25.83;;;;;;;;;;5052497;28;20033;-73
2022/12/25 06:17:56;;;;;;;107.70;25.98;;;;;;;;;;5053995;28;20505;-73
2022/12/25 06:20:22;;;;;;;107.50;26.90;;;;;;;;;;5052120;28;20120;-73
2022/12/25 06:22:48;;;;;;;102.32;24.65;;;;;;;;;;5036144;28;20045;-73
2022/12/25 06:25:14;;;;;;;110.85;25.88;;;;;;;;;;5053233;28;20506;-73
2022/12/25 06:27:40;;;;;;;102.00;26.42;;;;;;;;;;5052180;28;20052;-73
2022/12/25 06:30:06;;;;;;;106.63;25.73;;;;;;;;;;5051401;28;20045;-73
2022/12/25 06:32:32;;;;;;;98.38;24.85;;;;;;;;;;5053844;28;20045;-73
2022/12/25 06:34:58;;;;;;;109.85;25.85;;;;;;;;;;5049686;28;20040;-71
2022/12/25 06:37:24;;;;;;;103.63;25.95;;;;;;;;;;5051734;28;20033;-71
2022/12/25 06:39:51;;;;;;;91.15;24.13;;;;;;;;;;5052043;28;20072;-72
2022/12/25 06:42:17;;;;;;;99.90;25.92;;;;;;;;;;5052044;28;20485;-72
2022/12/25 06:44:43;;;;;;;90.90;25.25;;;;;;;;;;5051892;28;20098;-72
2022/12/25 06:47:09;;;;;;;93.82;24.63;;;;;;;;;;5052754;28;20041;-72
2022/12/25 06:49:35;;;;;;;95.88;23.77;;;;;;;;;;5053346;28;20608;-72
2022/12/25 06:52:01;;;;;;;95.88;25.17;;;;;;;;;;5052062;28;20033;-73
2022/12/25 06:54:27;;;;;;;91.43;24.08;;;;;;;;;;5051862;28;20218;-72
2022/12/25 06:56:54;;;;;;;100.38;23.88;;;;;;;;;;5035682;28;20118;-72
2022/12/25 06:59:20;;;;;;;87.97;22.75;;;;;;;;;;5051016;28;20117;-72
2022/12/25 07:01:46;;;;;;;86.72;23.38;;;;;;;;;;5051883;28;20485;-72
2022/12/25 07:04:15;;;;;;;82.53;21.95;;;;;;;;;;5052619;28;20044;-72
2022/12/25 07:06:41;;;;;;;83.15;23.02;;;;;;;;;;5051910;28;20432;-72
2022/12/25 07:09:07;;;;;;;89.28;23.70;;;;;;;;;;5051504;28;20052;-72
2022/12/25 07:11:33;;;;;;;85.68;23.27;;;;;;;;;;5051027;28;20059;-72
2022/12/25 07:13:59;;;;;;;79.47;22.23;;;;;;;;;;5052777;28;20056;-72
2022/12/25 07:16:25;;;;;;;84.57;23.23;;;;;;;;;;5050864;28;20033;-72
2022/12/25 07:18:51;;;;;;;90.97;23.10;;;;;;;;;;5051325;28;20049;-72
2022/12/25 07:21:18;;;;;;;73.80;21.65;;;;;;;;;;5051276;28;20052;-72
2022/12/25 07:23:45;;;;;;;87.40;23.48;;;;;;;;;;5085097;28;20382;-72
2022/12/25 07:26:11;;;;;;;80.05;22.15;;;;;;;;;;5034793;28;20123;-72
2022/12/25 07:28:38;;;;;;;76.75;22.88;;;;;;;;;;5051108;28;20413;-72
2022/12/25 07:31:05;;;;;;;75.60;22.60;;;;;;;;;;5050933;28;20041;-72
2022/12/25 07:33:31;;;;;;;71.60;21.90;;;;;;;;;;5047409;28;20037;-72
2022/12/25 07:35:58;;;;;;;87.55;23.33;;;;;;;;;;5050003;28;20518;-72
2022/12/25 07:38:24;;;;;;;70.00;21.17;;;;;;;;;;5084209;28;20052;-72
2022/12/25 07:40:50;;;;;;;80.05;22.52;;;;;;;;;;5050673;28;20132;-72
2022/12/25 07:43:16;;;;;;;67.18;20.38;;;;;;;;;;5050601;28;20464;-72
2022/12/25 07:45:42;;;;;;;58.80;21.10;;;;;;;;;;5052066;28;20438;-72
2022/12/25 07:48:08;;;;;;;69.07;21.33;;;;;;;;;;5052921;28;20481;-72
2022/12/25 07:50:34;;;;;;;65.28;21.80;;;;;;;;;;5051724;28;20572;-72
2022/12/25 07:53:00;;;;;;;62.38;20.17;;;;;;;;;;5050980;28;20033;-73
2022/12/25 07:55:26;;;;;;;56.28;21.20;;;;;;;;;;5033848;28;20098;-72
2022/12/25 07:57:52;;;;;;;61.85;20.58;;;;;;;;;;5050857;28;20032;-72
2022/12/25 08:00:18;;;;;;;56.80;18.77;;;;;;;;;;5050347;28;20186;-72
2022/12/25 08:02:44;;;;;;;64.95;20.20;;;;;;;;;;5050957;28;20048;-72
2022/12/25 08:05:10;;;;;;;52.45;18.35;;;;;;;;;;5052053;28;20037;-72
2022/12/25 08:07:36;;;;;;;52.42;19.02;;;;;;;;;;5050351;28;20076;-72
2022/12/25 08:10:03;;;;;;;56.17;19.10;;;;;;;;;;5050696;28;20037;-72
2022/12/25 08:12:29;;;;;;;50.83;20.88;;;;;;;;;;5050965;28;20048;-72
2022/12/25 08:14:55;;;;;;;50.40;20.80;;;;;;;;;;5050565;28;20040;-72
2022/12/25 08:17:21;;;;;;;54.70;19.05;;;;;;;;;;5052337;28;20044;-73
2022/12/25 08:19:47;;;;;;;54.88;19.55;;;;;;;;;;5033452;28;20120;-73
2022/12/25 08:22:13;;;;;;;52.72;18.42;;;;;;;;;;5050313;28;20462;-73
2022/12/25 08:24:39;;;;;;;62.33;21.55;;;;;;;;;;5049975;28;20048;-73
2022/12/25 08:27:06;;;;;;;57.00;18.17;;;;;;;;;;5050390;28;20047;-73
2022/12/25 08:29:32;;;;;;;48.67;17.65;;;;;;;;;;5033388;28;20107;-73
2022/12/25 08:31:58;;;;;;;53.08;19.27;;;;;;;;;;5049612;28;20060;-73
2022/12/25 08:34:24;;;;;;;55.40;18.48;;;;;;;;;;5030844;28;20040;-73
2022/12/25 08:36:53;;;;;;;51.72;17.52;;;;;;;;;;5050576;28;20041;-72
2022/12/25 08:39:19;;;;;;;49.03;18.92;;;;;;;;;;5014774;28;20037;-71
2022/12/25 08:41:45;;;;;;;48.88;18.02;;;;;;;;;;5046172;28;20048;-73
2022/12/25 08:44:12;;;;;;;41.53;15.43;;;;;;;;;;5065015;28;20040;-73
2022/12/25 08:46:38;;;;;;;41.95;15.90;;;;;;;;;;5049721;28;20045;-72
2022/12/25 08:49:04;;;;;;;46.67;16.52;;;;;;;;;;5050225;28;20106;-72
2022/12/25 08:51:31;;;;;;;38.20;14.82;;;;;;;;;;5049826;28;20044;-73
2022/12/25 08:54:00;;;;;;;46.15;17.50;;;;;;;;;;5052989;28;20048;-73
2022/12/25 08:56:26;;;;;;;47.72;16.75;;;;;;;;;;5017806;28;20497;-72
2022/12/25 08:58:52;;;;;;;41.70;15.70;;;;;;;;;;5048070;28;20559;-72
2022/12/25 09:01:18;;;;;;;44.67;15.98;;;;;;;;;;5055445;28;20037;-72
2022/12/25 09:03:44;;;;;;;37.78;16.45;;;;;;;;;;5053344;28;20048;-72
2022/12/25 09:06:12;;;;;;;37.58;14.80;;;;;;;;;;5053866;28;20387;-71
2022/12/25 09:08:38;;;;;;;43.97;15.65;;;;;;;;;;5053975;28;20053;-72
2022/12/25 09:11:05;;;;;;;41.78;15.20;;;;;;;;;;5053740;28;20069;-72
2022/12/25 09:13:31;;;;;;;36.47;14.63;;;;;;;;;;5053577;28;20513;-72
2022/12/25 09:15:58;;;;;;;31.08;12.40;;;;;;;;;;5034482;28;20056;-72
2022/12/25 09:18:24;;;;;;;29.05;13.35;;;;;;;;;;5036940;28;20033;-73
2022/12/25 09:21:00;;;;;;;35.05;14.52;;;;;;;;;;5036605;28;20045;-73
2022/12/25 09:23:27;;;;;;;33.65;13.60;;;;;;;;;;5053825;28;20098;-73
2022/12/25 09:25:53;;;;;;;28.77;12.73;;;;;;;;;;5087083;28;20041;-73
2022/12/25 09:28:19;;;;;;;31.13;12.35;;;;;;;;;;5053208;28;20057;-73
2022/12/25 09:30:45;;;;;;;31.63;11.48;;;;;;;;;;5053574;28;20098;-73
2022/12/25 09:33:11;;;;;;;29.30;12.95;;;;;;;;;;5052976;28;20543;-73
2022/12/25 09:35:37;;;;;;;26.77;12.70;;;;;;;;;;5051790;28;20075;-73
2022/12/25 09:38:03;;;;;;;28.00;13.48;;;;;;;;;;5036946;28;20052;-72
2022/12/25 09:40:30;;;;;;;31.40;13.32;;;;;;;;;;5036890;28;20099;-73
2022/12/25 09:42:56;;;;;;;31.83;12.98;;;;;;;;;;5036531;28;20045;-72
2022/12/25 09:45:33;;;;;;;35.85;13.75;;;;;;;;;;5036785;28;20108;-72
2022/12/25 09:47:59;;;;;;;30.75;13.65;;;;;;;;;;5053315;28;20442;-72
2022/12/25 09:50:47;;;;;;;33.72;15.85;;;;;;;;;;5036303;28;20068;-72
2022/12/25 09:53:36;;;;;;;35.38;15.93;;;;;;;;;;5053539;28;20478;-72
2022/12/25 09:56:11;;;;;;;40.28;15.43;;;;;;;;;;5053004;28;20427;-72
2022/12/25 09:58:37;;;;;;;32.72;14.40;;;;;;;;;;5052892;28;20051;-72
2022/12/25 10:01:19;;;;;;;35.10;15.13;;;;;;;;;;5036113;28;20041;-72
2022/12/25 10:03:58;;;;;;;32.63;15.95;;;;;;;;;;5052112;28;20048;-72
2022/12/25 10:06:31;;;;;;;41.20;20.05;;;;;;;;;;5052604;28;20052;-72
2022/12/25 10:09:00;;;;;;;36.13;14.40;;;;;;;;;;5051824;28;20040;-72
2022/12/25 10:11:45;;;;;;;31.08;13.80;;;;;;;;;;5052735;28;20041;-72
2022/12/25 10:14:29;;;;;;;36.38;14.82;;;;;;;;;;5052547;28;20094;-72
2022/12/25 10:16:56;;;;;;;35.75;14.68;;;;;;;;;;5052218;28;20134;-72
2022/12/25 10:19:31;;;;;;;33.75;14.38;;;;;;;;;;5035923;28;20048;-71
2022/12/25 10:22:01;;;;;;;31.60;13.98;;;;;;;;;;5052220;28;20509;-73
2022/12/25 10:24:32;;;;;;;34.63;14.25;;;;;;;;;;5053923;28;20443;-73
2022/12/25 10:27:00;;;;;;;35.78;14.88;;;;;;;;;;5051998;28;20094;-73
2022/12/25 10:29:33;;;;;;;30.55;14.65;;;;;;;;;;5052111;28;20147;-73
2022/12/25 10:31:59;;;;;;;30.80;13.27;;;;;;;;;;5051808;28;20049;-73
2022/12/25 10:34:26;;;;;;;30.00;13.90;;;;;;;;;;5026901;28;20077;-73
2022/12/25 10:36:52;;;;;;;29.52;13.15;;;;;;;;;;5051993;28;20052;-73
2022/12/25 10:39:23;;;;;;;33.83;14.00;;;;;;;;;;5052090;28;20059;-72
2022/12/25 10:41:53;;;;;;;31.65;15.10;;;;;;;;;;5051781;28;20045;-72
2022/12/25 10:44:20;;;;;;;32.35;15.05;;;;;;;;;;5052294;28;20116;-72
2022/12/25 10:46:54;;;;;;;31.58;14.43;;;;;;;;;;5051533;28;20119;-72
2022/12/25 10:49:21;;;;;;;30.05;13.15;;;;;;;;;;5053350;28;20045;-72
2022/12/25 10:51:47;;;;;;;28.52;13.38;;;;;;;;;;5051438;28;20087;-72
2022/12/25 10:54:30;;;;;;;32.80;13.70;;;;;;;;;;5051668;28;20090;-72
2022/12/25 10:57:03;;;;;;;27.00;13.00;;;;;;;;;;5051394;28;20036;-72
2022/12/25 10:59:33;;;;;;;31.35;13.80;;;;;;;;;;5051802;28;20115;-72
2022/12/25 11:02:23;;;;;;;29.65;12.70;;;;;;;;;;5051248;28;20049;-72
2022/12/25 11:04:50;;;;;;;27.80;12.45;;;;;;;;;;5043783;28;20048;-72
2022/12/25 11:07:16;;;;;;;31.23;12.48;;;;;;;;;;5051855;28;20482;-72
2022/12/25 11:09:48;;;;;;;27.83;13.10;;;;;;;;;;5084551;28;20044;-72
2022/12/25 11:12:18;;;;;;;30.27;12.55;;;;;;;;;;5051526;28;20041;-72
2022/12/25 11:14:56;;;;;;;28.00;12.88;;;;;;;;;;5051008;28;20037;-72
2022/12/25 11:17:24;;;;;;;26.73;13.40;;;;;;;;;;5050419;28;20040;-72
2022/12/25 11:19:54;;;;;;;31.88;12.45;;;;;;;;;;5051169;28;20612;-72
2022/12/25 11:22:20;;;;;;;28.75;12.57;;;;;;;;;;5051237;28;20033;-72
2022/12/25 11:24:46;;;;;;;29.55;12.57;;;;;;;;;;5034588;28;20521;-72
2022/12/25 11:27:24;;;;;;;25.13;11.73;;;;;;;;;;5051191;28;20044;-72
2022/12/25 11:29:52;;;;;;;31.67;12.20;;;;;;;;;;5051233;28;20516;-72
2022/12/25 11:32:30;;;;;;;25.08;11.30;;;;;;;;;;5051337;28;20482;-72
2022/12/25 11:34:57;;;;;;;27.52;11.75;;;;;;;;;;5031881;28;20106;-72
2022/12/25 11:37:41;;;;;;;26.67;11.25;;;;;;;;;;5050980;28;20061;-72
2022/12/25 11:40:13;;;;;;;23.52;11.65;;;;;;;;;;5050898;28;20401;-72
2022/12/25 11:42:41;;;;;;;24.75;10.63;;;;;;;;;;5051310;28;20040;-72
2022/12/25 11:45:11;;;;;;;24.98;11.43;;;;;;;;;;5050821;28;20138;-72
2022/12/25 11:47:43;;;;;;;22.70;10.50;;;;;;;;;;5050891;28;20136;-73
2022/12/25 11:50:28;;;;;;;24.48;10.77;;;;;;;;;;5052348;28;20473;-73
2022/12/25 11:52:54;;;;;;;22.65;10.43;;;;;;;;;;5050251;28;20047;-72
2022/12/25 11:55:39;;;;;;;26.50;10.20;;;;;;;;;;5034592;28;20033;-72
2022/12/25 11:58:12;;;;;;;19.20;9.90;;;;;;;;;;5050369;28;20036;-73
2022/12/25 12:00:40;;;;;;;22.98;10.18;;;;;;;;;;5050899;28;20044;-73
2022/12/25 12:03:33;;;;;;;22.70;11.00;;;;;;;;;;5050490;28;20409;-73
2022/12/25 12:06:02;;;;;;;22.65;10.68;;;;;;;;;;5051398;28;20045;-73
2022/12/25 12:08:29;;;;;;;30.15;11.52;;;;;;;;;;5052262;28;20063;-73
2022/12/25 12:11:15;;;;;;;26.35;10.85;;;;;;;;;;5033570;28;20043;-73
2022/12/25 12:14:00;;;;;;;27.40;10.65;;;;;;;;;;5050607;28;20041;-73
2022/12/25 12:16:26;;;;;;;23.83;12.00;;;;;;;;;;5050511;28;20069;-73
2022/12/25 12:18:52;;;;;;;27.65;10.85;;;;;;;;;;5050263;28;20091;-73
2022/12/25 12:21:27;;;;;;;27.10;12.65;;;;;;;;;;5034093;28;20120;-73
2022/12/25 12:24:13;;;;;;;25.85;10.70;;;;;;;;;;5050154;28;20132;-73
2022/12/25 12:26:41;;;;;;;32.10;11.40;;;;;;;;;;5050568;28;20045;-73
2022/12/25 12:29:19;;;;;;;26.63;11.25;;;;;;;;;;5053217;28;20089;-73
2022/12/25 12:31:47;;;;;;;25.60;10.32;;;;;;;;;;5054551;28;20474;-73
2022/12/25 12:34:27;;;;;;;23.17;10.80;;;;;;;;;;5045066;28;20073;-73
2022/12/25 12:36:58;;;;;;;22.55;10.50;;;;;;;;;;5042123;28;20041;-73
2022/12/25 12:39:26;;;;;;;23.08;10.77;;;;;;;;;;5054314;28;20132;-73
2022/12/25 12:41:52;;;;;;;23.67;10.50;;;;;;;;;;5053962;28;20106;-73
2022/12/25 12:44:19;;;;;;;23.55;10.32;;;;;;;;;;5054640;28;20053;-73
2022/12/25 12:46:51;;;;;;;23.80;10.02;;;;;;;;;;5038119;28;20386;-72
2022/12/25 12:49:21;;;;;;;23.88;10.00;;;;;;;;;;5054966;28;20044;-72
2022/12/25 12:51:47;;;;;;;21.38;9.27;;;;;;;;;;5055799;28;20551;-72
2022/12/25 12:54:16;;;;;;;24.60;10.10;;;;;;;;;;5053480;28;20041;-72
2022/12/25 12:56:42;;;;;;;23.75;9.88;;;;;;;;;;5056024;28;20045;-72
2022/12/25 12:59:09;;;;;;;20.30;8.93;;;;;;;;;;5053546;28;20052;-72
2022/12/25 13:01:44;;;;;;;18.80;9.30;;;;;;;;;;5053948;28;20055;-72
2022/12/25 13:04:29;;;;;;;19.85;8.88;;;;;;;;;;5054997;28;20532;-72
2022/12/25 13:07:05;;;;;;;15.40;8.48;;;;;;;;;;5053832;28;20378;-73
2022/12/25 13:09:40;;;;;;;18.80;8.95;;;;;;;;;;5053956;28;20041;-72
2022/12/25 13:12:07;;;;;;;21.67;9.63;;;;;;;;;;5054712;28;20041;-72
2022/12/25 13:14:34;;;;;;;19.05;9.63;;;;;;;;;;5054024;28;20068;-72
2022/12/25 13:17:00;;;;;;;20.55;9.48;;;;;;;;;;5017521;28;20091;-72
2022/12/25 13:19:28;;;;;;;22.38;9.85;;;;;;;;;;5044962;28;20398;-72
2022/12/25 13:21:59;;;;;;;21.20;9.65;;;;;;;;;;5054071;28;20554;-72
2022/12/25 13:24:26;;;;;;;22.50;10.85;;;;;;;;;;5053576;28;20040;-72
2022/12/25 13:26:52;;;;;;;38.67;19.38;;;;;;;;;;5053729;28;20397;-73
2022/12/25 13:29:22;;;;;;;50.60;20.88;;;;;;;;;;5052868;28;20060;-73
2022/12/25 13:31:49;;;;;;;48.33;24.92;;;;;;;;;;5053360;28;20045;-72
2022/12/25 13:34:41;;;;;;;24.20;10.95;;;;;;;;;;5043829;28;20053;-72
2022/12/25 13:37:16;;;;;;;22.80;10.93;;;;;;;;;;5050646;28;20061;-72
2022/12/25 13:39:50;;;;;;;24.23;11.05;;;;;;;;;;5052342;28;20044;-72
2022/12/25 13:42:21;;;;;;;20.80;11.02;;;;;;;;;;5053492;28;20140;-72
2022/12/25 13:44:49;;;;;;;20.83;11.55;;;;;;;;;;5053381;28;20064;-71
2022/12/25 13:47:38;;;;;;;23.95;11.63;;;;;;;;;;5053210;28;20037;-72
2022/12/25 13:50:20;;;;;;;21.65;11.77;;;;;;;;;;5052867;28;20106;-73
2022/12/25 13:52:47;;;;;;;23.83;11.43;;;;;;;;;;5036728;28;20037;-73
2022/12/25 13:55:20;;;;;;;24.33;12.10;;;;;;;;;;5052356;28;20070;-73
2022/12/25 13:57:51;;;;;;;27.55;12.27;;;;;;;;;;5052839;28;20040;-71
2022/12/25 14:00:22;;;;;;;23.25;12.38;;;;;;;;;;5052458;28;20047;-73
2022/12/25 14:03:00;;;;;;;24.10;13.10;;;;;;;;;;5053014;28;20040;-74
2022/12/25 14:05:31;;;;;;;24.33;12.82;;;;;;;;;;5053188;28;20056;-72
2022/12/25 14:07:59;;;;;;;25.77;13.07;;;;;;;;;;5052912;28;20086;-72
2022/12/25 14:10:26;;;;;;;24.10;12.52;;;;;;;;;;5035833;28;20040;-72
2022/12/25 14:12:54;;;;;;;23.98;12.90;;;;;;;;;;5052956;28;20082;-72
2022/12/25 14:15:21;;;;;;;27.10;13.43;;;;;;;;;;5052319;28;20041;-72
2022/12/25 14:17:48;;;;;;;27.48;12.30;;;;;;;;;;5052578;28;20037;-73
2022/12/25 14:20:49;;;;;;;27.85;13.90;;;;;;;;;;5052404;28;20052;-73
2022/12/25 14:23:15;;;;;;;22.30;12.02;;;;;;;;;;4978894;28;20049;-73
2022/12/25 14:25:43;;;;;;;27.73;14.32;;;;;;;;;;5040680;28;20400;-73
2022/12/25 14:28:17;;;;;;;33.00;13.95;;;;;;;;;;5052185;28;20076;-73
2022/12/25 14:30:43;;;;;;;27.13;13.07;;;;;;;;;;5052558;28;20048;-73
2022/12/25 14:33:17;;;;;;;26.92;13.88;;;;;;;;;;5051948;28;20456;-73
2022/12/25 14:35:44;;;;;;;29.52;13.98;;;;;;;;;;5035013;28;20112;-73
2022/12/25 14:38:17;;;;;;;31.38;14.82;;;;;;;;;;5051831;28;20382;-73
2022/12/25 14:40:44;;;;;;;26.65;14.57;;;;;;;;;;5052098;28;20041;-73
2022/12/25 14:43:21;;;;;;;29.75;15.75;;;;;;;;;;5035539;28;20053;-73
2022/12/25 14:45:54;;;;;;;28.10;13.73;;;;;;;;;;5052173;28;20033;-73
2022/12/25 14:48:24;;;;;;;28.13;14.32;;;;;;;;;;5051733;28;20063;-73
2022/12/25 14:50:56;;;;;;;28.02;14.43;;;;;;;;;;5052071;28;20473;-73
2022/12/25 14:53:24;;;;;;;32.13;15.63;;;;;;;;;;5051849;28;20440;-73
2022/12/25 14:55:52;;;;;;;34.85;16.45;;;;;;;;;;5051829;28;20041;-73
2022/12/25 14:58:21;;;;;;;34.00;16.08;;;;;;;;;;5051875;28;20116;-73
2022/12/25 15:00:53;;;;;;;31.60;16.45;;;;;;;;;;5035501;28;20504;-73
2022/12/25 15:03:23;;;;;;;34.95;15.60;;;;;;;;;;5051573;28;20040;-73
2022/12/25 15:06:00;;;;;;;33.15;16.35;;;;;;;;;;5052948;28;20143;-73
2022/12/25 15:08:26;;;;;;;38.17;17.98;;;;;;;;;;5052563;28;20106;-73
2022/12/25 15:10:54;;;;;;;36.25;17.65;;;;;;;;;;5051300;28;20045;-73
2022/12/25 15:13:20;;;;;;;34.95;17.10;;;;;;;;;;5034955;28;20551;-73
2022/12/25 15:15:49;;;;;;;39.13;19.25;;;;;;;;;;5052325;28;20394;-73
2022/12/25 15:18:15;;;;;;;36.97;17.88;;;;;;;;;;5050835;28;20064;-73
2022/12/25 15:20:41;;;;;;;33.58;17.00;;;;;;;;;;5051513;28;20067;-73
2022/12/25 15:23:12;;;;;;;36.78;17.88;;;;;;;;;;5051660;28;20525;-73
2022/12/25 15:25:39;;;;;;;48.67;23.15;;;;;;;;;;5051361;28;20049;-73
2022/12/25 15:28:05;;;;;;;37.53;18.45;;;;;;;;;;5051682;28;20128;-73
2022/12/25 15:30:34;;;;;;;45.65;19.80;;;;;;;;;;5033810;28;20502;-73
2022/12/25 15:33:00;;;;;;;48.00;21.95;;;;;;;;;;5051145;28;20076;-73
2022/12/25 15:35:26;;;;;;;43.40;20.63;;;;;;;;;;5048214;28;20041;-73
2022/12/25 15:37:52;;;;;;;45.70;18.73;;;;;;;;;;5051132;28;20115;-73
2022/12/25 15:40:20;;;;;;;40.88;18.25;;;;;;;;;;5034038;28;20052;-73
2022/12/25 15:42:47;;;;;;;45.05;18.90;;;;;;;;;;5050940;28;20052;-73
2022/12/25 15:45:24;;;;;;;37.63;17.90;;;;;;;;;;5052896;28;20069;-72
2022/12/25 15:47:50;;;;;;;43.17;19.63;;;;;;;;;;5050931;28;20037;-72
2022/12/25 15:50:17;;;;;;;45.13;18.70;;;;;;;;;;5050770;28;20115;-73
2022/12/25 15:52:43;;;;;;;42.88;19.73;;;;;;;;;;5050770;28;20033;-73
2022/12/25 15:55:10;;;;;;;46.45;20.80;;;;;;;;;;5084589;28;20041;-73
2022/12/25 15:57:37;;;;;;;45.83;20.27;;;;;;;;;;5050220;28;20036;-73
2022/12/25 16:00:04;;;;;;;43.38;19.05;;;;;;;;;;5051046;28;20182;-73
2022/12/25 16:02:30;;;;;;;50.78;20.85;;;;;;;;;;5049948;28;20094;-73
2022/12/25 16:04:56;;;;;;;45.72;20.30;;;;;;;;;;5051011;28;20040;-73
2022/12/25 16:07:23;;;;;;;42.97;19.23;;;;;;;;;;5034353;28;20524;-73
2022/12/25 16:09:50;;;;;;;44.88;20.35;;;;;;;;;;5034093;28;20068;-73
2022/12/25 16:12:16;;;;;;;53.35;21.15;;;;;;;;;;5051000;28;20447;-73